createdAt,value
2018-09-23T00:01:56.413Z,12.27
2018-09-23T00:04:25.354Z,11.50
2018-09-23T00:06:54.163Z,11.37
2018-09-23T00:09:22.824Z,12.03
2018-09-23T00:11:51.464Z,11.57
2018-09-23T00:14:20.091Z,12.70
2018-09-23T00:16:49.014Z,11.80
2018-09-23T00:19:17.685Z,11.83
2018-09-23T00:21:46.460Z,11.90
2018-09-23T00:24:15.188Z,11.60
2018-09-23T00:26:43.894Z,11.93
2018-09-23T00:29:12.668Z,12.63
2018-09-23T00:31:41.327Z,12.40
2018-09-23T00:34:09.990Z,13.60
2018-09-23T00:36:38.696Z,12.30
2018-09-23T00:39:07.566Z,12.20
2018-09-23T00:41:36.402Z,12.90
2018-09-23T00:44:05.173Z,12.50
2018-09-23T00:46:34.058Z,14.27
2018-09-23T00:49:02.818Z,14.23
2018-09-23T00:51:31.923Z,14.87
2018-09-23T00:54:00.729Z,14.87
2018-09-23T00:56:29.591Z,14.77
2018-09-23T00:58:58.213Z,15.93
2018-09-23T01:01:27.067Z,14.90
2018-09-23T01:03:55.759Z,15.67
2018-09-23T01:06:24.471Z,16.00
2018-09-23T01:08:53.179Z,15.73
2018-09-23T01:11:22.139Z,15.73
2018-09-23T01:13:50.824Z,15.60
2018-09-23T01:16:19.857Z,14.47
2018-09-23T01:18:49.221Z,16.30
2018-09-23T01:21:17.903Z,17.17
2018-09-23T01:23:46.553Z,16.73
2018-09-23T01:26:15.198Z,16.33
2018-09-23T01:28:43.895Z,17.00
2018-09-23T01:31:12.643Z,16.37
2018-09-23T01:33:41.303Z,16.90
2018-09-23T01:36:10.119Z,17.03
2018-09-23T01:38:38.818Z,18.80
2018-09-23T01:41:07.591Z,16.80
2018-09-23T01:43:36.293Z,17.13
2018-09-23T01:46:04.959Z,16.87
2018-09-23T01:48:33.833Z,16.50
2018-09-23T01:51:02.705Z,17.13
2018-09-23T01:53:31.343Z,17.30
2018-09-23T01:56:00.133Z,17.57
2018-09-23T01:58:28.861Z,17.23
2018-09-23T02:00:57.520Z,19.40
2018-09-23T02:03:26.307Z,18.27
2018-09-23T02:05:54.939Z,18.17
2018-09-23T02:08:23.823Z,17.77
2018-09-23T02:10:52.451Z,18.07
2018-09-23T02:13:21.309Z,18.60
2018-09-23T02:15:50.219Z,18.67
2018-09-23T02:18:18.927Z,19.37
2018-09-23T02:20:47.740Z,18.20
2018-09-23T02:23:16.682Z,19.20
2018-09-23T02:25:45.315Z,18.13
2018-09-23T02:28:14.283Z,19.23
2018-09-23T02:30:43.037Z,18.83
2018-09-23T02:33:11.901Z,19.67
2018-09-23T02:35:40.821Z,20.03
2018-09-23T02:38:09.499Z,18.97
2018-09-23T02:40:38.151Z,20.43
2018-09-23T02:43:06.961Z,19.67
2018-09-23T02:45:35.775Z,19.50
2018-09-23T02:48:04.412Z,20.93
2018-09-23T02:50:33.045Z,20.90
2018-09-23T02:53:01.684Z,20.43
2018-09-23T02:55:30.329Z,22.27
2018-09-23T02:57:58.966Z,21.93
2018-09-23T03:00:27.602Z,21.23
2018-09-23T03:02:56.339Z,20.63
2018-09-23T03:05:25.023Z,21.57
2018-09-23T03:07:53.772Z,22.47
2018-09-23T03:10:22.408Z,21.20
2018-09-23T03:12:51.034Z,21.63
2018-09-23T03:15:19.654Z,21.27
2018-09-23T03:17:48.265Z,22.10
2018-09-23T03:20:16.922Z,21.37
2018-09-23T03:22:45.587Z,21.23
2018-09-23T03:25:14.558Z,22.53
2018-09-23T03:27:43.245Z,20.77
2018-09-23T03:30:11.921Z,20.77
2018-09-23T03:32:40.575Z,21.20
2018-09-23T03:35:09.303Z,21.07
2018-09-23T03:37:38.025Z,20.77
2018-09-23T03:40:06.677Z,21.60
2018-09-23T03:42:35.385Z,21.20
2018-09-23T03:45:04.029Z,21.37
2018-09-23T03:47:32.870Z,20.53
2018-09-23T03:50:01.519Z,22.27
2018-09-23T03:52:30.259Z,20.70
2018-09-23T03:54:58.945Z,22.47
2018-09-23T03:57:27.594Z,21.93
2018-09-23T03:59:56.396Z,21.70
2018-09-23T04:02:25.240Z,22.00
2018-09-23T04:04:53.979Z,22.07
2018-09-23T04:07:22.721Z,21.20
2018-09-23T04:09:51.376Z,22.77
2018-09-23T04:12:20.310Z,22.33
2018-09-23T04:14:48.971Z,22.63
2018-09-23T04:17:17.651Z,23.30
2018-09-23T04:19:46.299Z,23.07
2018-09-23T04:22:14.931Z,21.77
2018-09-23T04:24:43.615Z,22.73
2018-09-23T04:27:12.358Z,22.90
2018-09-23T04:29:41.064Z,22.53
2018-09-23T04:32:09.875Z,23.50
2018-09-23T04:34:38.702Z,22.07
2018-09-23T04:37:07.561Z,22.73
2018-09-23T04:39:36.405Z,22.57
2018-09-23T04:42:05.093Z,23.07
2018-09-23T04:44:33.764Z,22.93
2018-09-23T04:47:02.399Z,22.63
2018-09-23T04:49:31.290Z,23.40
2018-09-23T04:51:59.992Z,23.30
2018-09-23T04:54:28.669Z,23.33
2018-09-23T04:56:57.404Z,22.57
2018-09-23T04:59:25.998Z,22.80
2018-09-23T05:01:54.654Z,23.53
2018-09-23T05:04:23.560Z,23.20
2018-09-23T05:06:52.242Z,22.60
2018-09-23T05:09:20.906Z,23.23
2018-09-23T05:11:49.552Z,23.23
2018-09-23T05:14:18.177Z,22.80
2018-09-23T05:16:46.870Z,24.70
2018-09-23T05:19:15.597Z,24.30
2018-09-23T05:21:44.282Z,24.13
2018-09-23T05:24:13.127Z,24.40
2018-09-23T05:26:41.811Z,24.50
2018-09-23T05:29:10.460Z,24.20
2018-09-23T05:31:39.111Z,24.83
2018-09-23T05:34:07.828Z,24.40
2018-09-23T05:36:36.463Z,23.83
2018-09-23T05:39:07.181Z,23.30
2018-09-23T05:41:36.436Z,24.43
2018-09-23T05:44:05.400Z,24.47
2018-09-23T05:46:34.356Z,23.73
2018-09-23T05:49:03.029Z,24.77
2018-09-23T05:51:31.679Z,24.70
2018-09-23T05:54:00.331Z,24.07
2018-09-23T05:56:29.057Z,23.67
2018-09-23T05:58:57.777Z,24.73
2018-09-23T06:01:26.479Z,24.90
2018-09-23T06:03:55.164Z,23.40
2018-09-23T06:06:24.044Z,24.87
2018-09-23T06:08:52.685Z,23.90
2018-09-23T06:11:21.397Z,24.17
2018-09-23T06:13:50.009Z,23.60
2018-09-23T06:16:18.694Z,25.63
2018-09-23T06:18:47.493Z,25.83
2018-09-23T06:21:16.129Z,24.10
2018-09-23T06:23:44.816Z,25.10
2018-09-23T06:26:13.453Z,24.37
2018-09-23T06:28:42.089Z,25.53
2018-09-23T06:31:10.730Z,25.37
2018-09-23T06:33:39.421Z,25.27
2018-09-23T06:36:08.195Z,26.17
2018-09-23T06:38:36.987Z,24.70
2018-09-23T06:41:06.235Z,24.93
2018-09-23T06:43:34.984Z,25.07
2018-09-23T06:46:03.763Z,23.97
2018-09-23T06:48:32.487Z,24.77
2018-09-23T06:51:01.422Z,24.23
2018-09-23T06:53:30.057Z,25.43
2018-09-23T06:55:58.830Z,24.77
2018-09-23T06:58:27.721Z,25.60
2018-09-23T07:00:56.370Z,25.27
2018-09-23T07:03:25.234Z,25.13
2018-09-23T07:05:53.985Z,24.27
2018-09-23T07:08:22.718Z,24.47
2018-09-23T07:10:51.368Z,24.80
2018-09-23T07:13:20.327Z,24.27
2018-09-23T07:15:49.321Z,24.43
2018-09-23T07:18:18.006Z,24.77
2018-09-23T07:20:47.002Z,24.30
2018-09-23T07:23:15.920Z,25.03
2018-09-23T07:25:44.593Z,24.57
2018-09-23T07:28:13.357Z,26.00
2018-09-23T07:30:42.159Z,25.57
2018-09-23T07:33:10.955Z,25.43
2018-09-23T07:35:39.824Z,27.47
2018-09-23T07:38:08.506Z,25.07
2018-09-23T07:40:37.178Z,27.63
2018-09-23T07:43:06.178Z,25.93
2018-09-23T07:45:34.993Z,24.87
2018-09-23T07:48:03.812Z,24.80
2018-09-23T07:50:32.505Z,25.87
2018-09-23T07:53:01.411Z,25.17
2018-09-23T07:55:30.120Z,26.10
2018-09-23T07:57:58.811Z,25.87
2018-09-23T08:00:27.527Z,25.97
2018-09-23T08:02:56.188Z,26.13
2018-09-23T08:05:24.896Z,26.23
2018-09-23T08:07:53.581Z,25.97
2018-09-23T08:10:22.735Z,26.10
2018-09-23T08:12:51.566Z,25.73
2018-09-23T08:15:20.259Z,25.53
2018-09-23T08:17:49.140Z,26.67
2018-09-23T08:20:17.902Z,26.93
2018-09-23T08:22:46.507Z,26.70
2018-09-23T08:25:15.562Z,25.30
2018-09-23T08:27:44.779Z,24.53
2018-09-23T08:30:13.670Z,25.97
2018-09-23T08:32:42.453Z,24.97
2018-09-23T08:35:11.503Z,23.47
2018-09-23T08:37:40.202Z,24.13
2018-09-23T08:40:08.935Z,24.23
2018-09-23T08:42:37.611Z,24.27
2018-09-23T08:45:06.390Z,25.83
2018-09-23T08:47:35.035Z,24.57
2018-09-23T08:50:03.745Z,24.80
2018-09-23T08:52:32.493Z,23.83
2018-09-23T08:55:01.148Z,22.80
2018-09-23T08:57:29.872Z,22.63
2018-09-23T08:59:58.539Z,20.93
2018-09-23T09:02:27.235Z,21.03
2018-09-23T09:04:56.003Z,19.80
2018-09-23T09:07:24.766Z,19.73
2018-09-23T09:09:53.550Z,20.63
2018-09-23T09:12:22.469Z,20.20
2018-09-23T09:14:51.127Z,21.20
2018-09-23T09:17:19.755Z,20.40
2018-09-23T09:19:48.529Z,21.90
2018-09-23T09:22:17.359Z,21.13
2018-09-23T09:24:46.057Z,20.07
2018-09-23T09:27:14.745Z,20.87
2018-09-23T09:29:43.683Z,20.50
2018-09-23T09:32:12.371Z,19.83
2018-09-23T09:34:41.423Z,19.50
2018-09-23T09:37:10.298Z,19.30
2018-09-23T09:39:39.239Z,20.83
2018-09-23T09:42:08.227Z,20.20
2018-09-23T09:44:36.950Z,21.20
2018-09-23T09:47:05.763Z,19.50
2018-09-23T09:49:34.422Z,19.87
2018-09-23T09:52:03.140Z,20.73
2018-09-23T09:54:31.817Z,20.30
2018-09-23T09:57:00.460Z,19.37
2018-09-23T09:59:29.273Z,21.20
2018-09-23T10:01:58.017Z,21.67
2018-09-23T10:04:26.767Z,21.43
2018-09-23T10:06:55.445Z,20.00
2018-09-23T10:09:24.131Z,20.33
2018-09-23T10:11:52.925Z,20.57
2018-09-23T10:14:21.737Z,22.17
2018-09-23T10:16:50.381Z,23.00
2018-09-23T10:19:19.255Z,21.60
2018-09-23T10:21:47.942Z,22.27
2018-09-23T10:24:16.621Z,23.13
2018-09-23T10:26:45.275Z,22.73
2018-09-23T10:29:13.977Z,23.23
2018-09-23T10:31:42.699Z,22.27
2018-09-23T10:34:11.381Z,23.63
2018-09-23T10:36:40.073Z,24.00
2018-09-23T10:39:10.139Z,23.13
2018-09-23T10:41:38.788Z,22.70
2018-09-23T10:44:07.795Z,22.63
2018-09-23T10:46:37.566Z,24.00
2018-09-23T10:49:06.522Z,22.87
2018-09-23T10:51:35.214Z,21.83
2018-09-23T10:54:03.926Z,20.93
2018-09-23T10:56:32.609Z,19.70
2018-09-23T10:59:01.368Z,20.03
2018-09-23T11:01:30.087Z,21.57
2018-09-23T11:03:59.084Z,20.63
2018-09-23T11:06:27.743Z,21.60
2018-09-23T11:08:56.511Z,21.80
2018-09-23T11:11:25.202Z,22.30
2018-09-23T11:13:54.047Z,21.87
2018-09-23T11:16:22.977Z,20.27
2018-09-23T11:18:51.640Z,21.53
2018-09-23T11:21:20.362Z,21.30
2018-09-23T11:23:49.041Z,21.87
2018-09-23T11:26:17.917Z,21.77
2018-09-23T11:28:49.669Z,21.30
2018-09-23T11:31:18.601Z,21.20
2018-09-23T11:33:47.571Z,19.77
2018-09-23T11:36:16.454Z,21.47
2018-09-23T11:38:45.234Z,21.90
2018-09-23T11:41:13.915Z,21.63
2018-09-23T11:43:42.949Z,20.73
2018-09-23T11:46:11.678Z,20.50
2018-09-23T11:48:40.345Z,19.27
2018-09-23T11:51:09.069Z,21.33
2018-09-23T11:53:37.731Z,19.97
2018-09-23T11:56:06.619Z,19.80
2018-09-23T11:58:35.373Z,18.97
2018-09-23T12:01:04.086Z,20.50
2018-09-23T12:03:32.929Z,21.17
2018-09-23T12:06:01.583Z,18.77
2018-09-23T12:08:30.194Z,18.70
2018-09-23T12:10:58.960Z,18.20
2018-09-23T12:13:27.633Z,19.27
2018-09-23T12:15:56.341Z,19.77
2018-09-23T12:18:25.152Z,20.40
2018-09-23T12:20:53.824Z,20.70
2018-09-23T12:23:22.898Z,20.53
2018-09-23T12:25:52.017Z,20.73
2018-09-23T12:28:20.956Z,21.27
2018-09-23T12:30:49.822Z,21.17
2018-09-23T12:33:18.476Z,19.73
2018-09-23T12:35:47.340Z,20.33
2018-09-23T12:38:16.263Z,22.07
2018-09-23T12:40:45.222Z,20.77
2018-09-23T12:43:13.898Z,20.73
2018-09-23T12:45:42.604Z,20.47
2018-09-23T12:48:11.581Z,21.03
2018-09-23T12:50:40.430Z,20.73
2018-09-23T12:53:09.336Z,21.37
2018-09-23T12:55:38.052Z,21.60
2018-09-23T12:58:06.709Z,21.10
2018-09-23T13:00:35.375Z,20.37
2018-09-23T13:03:04.146Z,21.60
2018-09-23T13:05:33.026Z,21.03
2018-09-23T13:08:01.718Z,21.00
2018-09-23T13:10:30.478Z,20.53
2018-09-23T13:12:59.189Z,22.33
2018-09-23T13:15:28.112Z,22.33
2018-09-23T13:17:56.927Z,21.87
2018-09-23T13:20:25.888Z,24.47
2018-09-23T13:22:54.676Z,22.40
2018-09-23T13:25:23.506Z,23.40
2018-09-23T13:27:52.370Z,23.33
2018-09-23T13:30:21.507Z,23.07
2018-09-23T13:32:50.485Z,23.80
2018-09-23T13:35:19.225Z,24.27
2018-09-23T13:37:47.915Z,23.57
2018-09-23T13:40:16.571Z,22.97
2018-09-23T13:42:45.338Z,23.27
2018-09-23T13:45:14.184Z,23.03
2018-09-23T13:47:42.864Z,22.63
2018-09-23T13:50:11.495Z,23.20
2018-09-23T13:52:40.179Z,22.40
2018-09-23T13:55:09.021Z,22.50
2018-09-23T13:57:37.729Z,22.93
2018-09-23T14:00:07.004Z,23.43
2018-09-23T14:02:35.762Z,23.80
2018-09-23T14:05:04.782Z,23.17
2018-09-23T14:07:33.773Z,24.03
2018-09-23T14:10:02.473Z,21.67
2018-09-23T14:12:31.171Z,21.23
2018-09-23T14:15:00.278Z,19.53
2018-09-23T14:17:28.934Z,18.30
2018-09-23T14:19:58.014Z,18.37
2018-09-23T14:22:26.660Z,18.27
2018-09-23T14:24:55.327Z,17.10
2018-09-23T14:27:24.324Z,15.07
2018-09-23T14:29:53.026Z,15.13
2018-09-23T14:32:21.810Z,10.73
2018-09-23T14:34:50.492Z,9.60
2018-09-23T14:37:19.283Z,9.53
2018-09-23T14:39:48.185Z,8.63
2018-09-23T14:42:16.894Z,8.90
2018-09-23T14:44:45.920Z,8.93
2018-09-23T14:47:14.699Z,8.27
2018-09-23T14:49:43.453Z,8.07
2018-09-23T14:52:12.129Z,8.27
2018-09-23T14:54:41.012Z,8.27
2018-09-23T14:57:09.544Z,7.90
2018-09-23T14:59:38.365Z,6.20
2018-09-23T15:02:07.187Z,5.73
2018-09-23T15:04:36.146Z,6.20
2018-09-23T15:07:05.004Z,4.93
2018-09-23T15:09:34.332Z,3.73
2018-09-23T15:12:03.045Z,3.87
2018-09-23T15:14:31.953Z,2.70
2018-09-23T15:17:01.008Z,2.33
2018-09-23T15:19:29.933Z,2.30
2018-09-23T15:21:58.661Z,2.40
2018-09-23T15:24:27.345Z,2.37
2018-09-23T15:26:56.090Z,2.30
2018-09-23T15:29:24.747Z,2.70
2018-09-23T15:31:53.604Z,1.90
2018-09-23T15:34:22.447Z,2.00
2018-09-23T15:36:51.247Z,2.30
2018-09-23T15:39:19.889Z,2.13
2018-09-23T15:41:48.767Z,2.40
2018-09-23T15:44:17.640Z,2.70
2018-09-23T15:46:46.662Z,2.60
2018-09-23T15:49:15.327Z,2.73
2018-09-23T15:51:44.138Z,2.10
2018-09-23T15:54:12.938Z,2.13
2018-09-23T15:56:41.759Z,2.00
2018-09-23T15:59:10.403Z,1.73
2018-09-23T16:01:39.326Z,2.13
2018-09-23T16:04:08.541Z,1.80
2018-09-23T16:06:37.242Z,2.20
2018-09-23T16:09:07.829Z,1.90
2018-09-23T16:11:36.528Z,2.50
2018-09-23T16:14:05.215Z,2.13
2018-09-23T16:16:33.885Z,2.53
2018-09-23T16:19:02.622Z,3.10
2018-09-23T16:21:31.369Z,4.00
2018-09-23T16:24:00.146Z,3.80
2018-09-23T16:26:28.851Z,4.57
2018-09-23T16:28:57.902Z,4.50
2018-09-23T16:31:26.590Z,4.27
2018-09-23T16:33:55.734Z,4.07
2018-09-23T16:36:24.549Z,3.97
2018-09-23T16:38:53.215Z,3.00
2018-09-23T16:41:22.254Z,2.80
2018-09-23T16:43:50.931Z,2.33
2018-09-23T16:46:19.686Z,2.00
2018-09-23T16:48:48.749Z,2.30
2018-09-23T16:51:17.518Z,2.37
2018-09-23T16:53:46.494Z,2.10
2018-09-23T16:56:15.902Z,3.10
2018-09-23T16:58:45.343Z,2.60
2018-09-23T17:01:14.621Z,2.77
2018-09-23T17:03:43.762Z,2.33
2018-09-23T17:06:12.830Z,2.00
2018-09-23T17:08:42.083Z,1.70
2018-09-23T17:11:11.227Z,1.60
2018-09-23T17:13:40.149Z,2.27
2018-09-23T17:16:09.308Z,3.07
2018-09-23T17:18:38.364Z,2.30
2018-09-23T17:21:07.413Z,2.70
2018-09-23T17:23:36.335Z,2.70
2018-09-23T17:26:05.385Z,2.63
2018-09-23T17:28:34.388Z,2.47
2018-09-23T17:31:03.354Z,2.80
2018-09-23T17:33:32.209Z,2.77
2018-09-23T17:36:01.572Z,2.97
2018-09-23T17:38:30.554Z,3.13
2018-09-23T17:40:59.892Z,2.80
2018-09-23T17:43:29.077Z,6.53
2018-09-23T17:45:58.076Z,2.77
2018-09-23T17:48:27.092Z,2.40
2018-09-23T17:50:56.077Z,2.20
2018-09-23T17:53:25.013Z,2.07
2018-09-23T17:55:53.910Z,2.43
2018-09-23T17:58:23.001Z,3.80
2018-09-23T18:00:51.934Z,3.03
2018-09-23T18:03:20.970Z,2.50
2018-09-23T18:05:49.934Z,2.10
2018-09-23T18:08:18.873Z,2.30
2018-09-23T18:10:47.860Z,2.00
2018-09-23T18:13:16.861Z,2.00
2018-09-23T18:15:45.805Z,2.07
2018-09-23T18:18:14.985Z,2.10
2018-09-23T18:20:44.036Z,2.77
2018-09-23T18:23:13.046Z,2.63
2018-09-23T18:25:42.086Z,2.53
2018-09-23T18:28:11.212Z,2.80
2018-09-23T18:30:40.184Z,2.27
2018-09-23T18:33:08.861Z,2.43
2018-09-23T18:35:37.598Z,2.77
2018-09-23T18:38:06.391Z,2.47
2018-09-23T18:40:35.931Z,2.77
2018-09-23T18:43:04.605Z,2.57
2018-09-23T18:45:33.529Z,2.37
2018-09-23T18:48:02.506Z,2.40
2018-09-23T18:50:31.117Z,2.03
2018-09-23T18:53:04.935Z,2.10
2018-09-23T18:55:39.297Z,2.63
2018-09-23T18:58:08.246Z,2.40
2018-09-23T19:00:37.046Z,1.93
2018-09-23T19:03:05.791Z,3.17
2018-09-23T19:05:34.833Z,1.97
2018-09-23T19:08:03.884Z,1.70
2018-09-23T19:10:32.708Z,2.03
2018-09-23T19:13:06.782Z,2.00
2018-09-23T19:15:36.207Z,2.17
2018-09-23T19:18:05.390Z,1.90
2018-09-23T19:20:34.239Z,2.63
2018-09-23T19:23:10.599Z,1.90
2018-09-23T19:28:32.926Z,1.73
2018-09-23T19:31:01.758Z,1.73
2018-09-23T19:33:30.604Z,1.50
2018-09-23T19:35:59.289Z,1.20
2018-09-23T19:38:28.322Z,1.20
2018-09-23T19:40:57.032Z,1.93
2018-09-23T19:43:25.724Z,1.53
2018-09-23T19:45:54.414Z,1.53
2018-09-23T19:48:23.259Z,1.63
2018-09-23T19:50:51.960Z,1.77
2018-09-23T19:53:20.654Z,1.90
2018-09-23T19:55:49.338Z,1.43
2018-09-23T19:58:18.036Z,1.60
2018-09-23T20:00:46.699Z,1.70
2018-09-23T20:03:15.568Z,1.30
2018-09-23T20:05:44.506Z,1.67
2018-09-23T20:08:13.457Z,1.47
2018-09-23T20:10:42.859Z,1.63
2018-09-23T20:13:11.516Z,1.60
2018-09-23T20:15:40.315Z,1.27
2018-09-23T20:18:08.921Z,1.27
2018-09-23T20:20:37.643Z,1.90
2018-09-23T20:23:06.468Z,2.00
2018-09-23T20:25:35.348Z,2.27
2018-09-23T20:28:04.096Z,2.47
2018-09-23T20:30:32.734Z,3.00
2018-09-23T20:33:01.405Z,2.40
2018-09-23T20:35:30.073Z,2.17
2018-09-23T20:37:58.788Z,2.47
2018-09-23T20:40:27.780Z,2.37
2018-09-23T20:42:56.461Z,2.53
2018-09-23T20:45:25.196Z,2.07
2018-09-23T20:47:53.827Z,1.97
2018-09-23T20:50:22.496Z,1.73
2018-09-23T20:52:51.461Z,1.80
2018-09-23T20:55:20.262Z,1.70
2018-09-23T20:57:49.124Z,1.57
2018-09-23T21:00:17.839Z,2.13
2018-09-23T21:02:46.552Z,2.30
2018-09-23T21:05:15.570Z,2.33
2018-09-23T21:07:44.301Z,2.30
2018-09-23T21:10:13.134Z,2.13
2018-09-23T21:12:41.911Z,3.00
2018-09-23T21:15:10.936Z,3.00
2018-09-23T21:17:39.886Z,3.60
2018-09-23T21:20:09.017Z,3.70
2018-09-23T21:22:37.876Z,2.83
2018-09-23T21:25:06.576Z,2.23
2018-09-23T21:27:35.221Z,1.90
2018-09-23T21:30:03.934Z,1.47
2018-09-23T21:32:32.630Z,1.97
2018-09-23T21:35:01.446Z,2.23
2018-09-23T21:37:30.166Z,2.07
2018-09-23T21:39:58.826Z,2.00
2018-09-23T21:42:27.486Z,2.30
2018-09-23T21:44:56.395Z,1.60
2018-09-23T21:47:25.031Z,1.60
2018-09-23T21:49:53.816Z,1.57
2018-09-23T21:52:22.511Z,1.73
2018-09-23T21:54:51.528Z,1.63
2018-09-23T21:57:20.199Z,1.50
2018-09-23T21:59:48.867Z,1.87
2018-09-23T22:02:17.744Z,2.30
2018-09-23T22:04:46.380Z,1.63
2018-09-23T22:07:15.026Z,2.03
2018-09-23T22:09:44.004Z,1.40
2018-09-23T22:12:12.638Z,1.80
2018-09-23T22:14:41.294Z,1.63
2018-09-23T22:17:09.926Z,1.50
2018-09-23T22:19:38.815Z,1.63
2018-09-23T22:22:07.880Z,1.43
2018-09-23T22:24:36.676Z,1.53
2018-09-23T22:27:05.534Z,1.53
2018-09-23T22:29:34.339Z,1.23
2018-09-23T22:32:03.077Z,1.30
2018-09-23T22:34:31.715Z,1.70
2018-09-23T22:37:00.365Z,1.83
2018-09-23T22:39:29.004Z,1.57
2018-09-23T22:41:57.687Z,1.37
2018-09-23T22:44:26.329Z,1.20
2018-09-23T22:46:55.013Z,1.50
2018-09-23T22:49:23.933Z,1.97
2018-09-23T22:51:52.822Z,1.60
2018-09-23T22:54:21.783Z,1.80
2018-09-23T22:56:50.592Z,1.80
2018-09-23T22:59:19.219Z,1.63
2018-09-23T23:01:47.907Z,2.97
2018-09-23T23:04:16.548Z,2.37
2018-09-23T23:06:45.324Z,3.23
2018-09-23T23:09:13.978Z,1.30
2018-09-23T23:11:42.852Z,1.87
2018-09-23T23:14:11.714Z,1.87
2018-09-23T23:16:40.520Z,2.73
2018-09-23T23:19:09.186Z,2.30
2018-09-23T23:21:37.888Z,1.73
2018-09-23T23:24:06.553Z,1.30
2018-09-23T23:26:35.330Z,1.70
2018-09-23T23:29:03.981Z,1.40
2018-09-23T23:31:32.753Z,1.40
2018-09-23T23:34:01.421Z,1.40
2018-09-23T23:36:30.057Z,1.20
2018-09-23T23:38:58.706Z,2.20
2018-09-23T23:41:27.533Z,1.90
2018-09-23T23:43:56.390Z,1.87
2018-09-23T23:46:25.023Z,1.27
2018-09-23T23:48:53.653Z,0.97
2018-09-23T23:51:22.357Z,1.20
2018-09-23T23:53:50.999Z,1.20
2018-09-23T23:56:19.620Z,2.17
2018-09-23T23:58:48.237Z,0.90
